Time;durP1;ratioP1;P1;durP2;ratioP2;P2;SDS_P1;SDS_P2;PMS_P1;PMS_P2;Temp;Humidity;BMP_temperature;BMP_pressure;BME280_temperature;BME280_humidity;BME280_pressure;Samples;Min_cycle;Max_cycle;Signal;HPM_P1;HPM_P2
2020/12/02 00:01:36;;;;;;;;;;;1.80;99.90;;;;;;5012569;28;19952;-82
2020/12/02 00:04:12;;;;;;;;;;;1.80;99.90;;;;;;5012821;28;19913;-81
2020/12/02 00:06:39;;;;;;;;;;;1.70;99.90;;;;;;5012559;28;20352;-82
2020/12/02 00:09:13;;;;;;;;;;;1.80;99.90;;;;;;5011872;28;19920;-81
2020/12/02 00:11:39;;;;;;;;;;;1.80;99.90;;;;;;5012661;28;19917;-81
2020/12/02 00:14:05;;;;;;;;;;;1.80;99.90;;;;;;5012576;28;19913;-81
2020/12/02 00:16:31;;;;;;;;;;;1.80;99.90;;;;;;5012564;28;19913;-81
2020/12/02 00:18:57;;;;;;;;;;;1.80;99.90;;;;;;5030640;28;19936;-82
2020/12/02 00:21:24;;;;;;;;;;;1.80;99.90;;;;;;5012434;28;19994;-81
2020/12/02 00:23:53;;;;;;;;;;;1.80;99.90;;;;;;5012568;28;20293;-79
2020/12/02 00:26:19;;;;;;;;;;;1.80;99.90;;;;;;5012021;28;19913;-80
2020/12/02 00:28:45;;;;;;;;;;;1.80;99.90;;;;;;5012291;28;20369;-80
2020/12/02 00:31:11;;;;;;;;;;;1.80;99.90;;;;;;5012491;28;19921;-79
2020/12/02 00:33:39;;;;;;;;;;;1.80;99.90;;;;;;5011897;28;19932;-80
2020/12/02 00:36:04;;;;;;;;;;;1.80;99.90;;;;;;5012341;28;19916;-80
2020/12/02 00:38:30;;;;;;;;;;;1.70;99.90;;;;;;5012281;28;19914;-81
2020/12/02 00:40:55;;;;;;;;;;;1.80;99.90;;;;;;5012003;28;19914;-80
2020/12/02 00:43:23;;;;;;;;;;;1.80;99.90;;;;;;5012249;28;19913;-81
2020/12/02 00:45:49;;;;;;;;;;;1.80;99.90;;;;;;5012270;28;19920;-81
2020/12/02 00:48:18;;;;;;;;;;;1.80;99.90;;;;;;5011909;28;19913;-79
2020/12/02 00:50:44;;;;;;;;;;;1.80;99.90;;;;;;5012201;28;19909;-81
2020/12/02 00:53:16;;;;;;;;;;;1.80;99.90;;;;;;5012153;28;20349;-82
2020/12/02 00:55:43;;;;;;;;;;;1.70;99.90;;;;;;5012333;28;19921;-79
2020/12/02 00:58:11;;;;;;;;;;;1.80;99.90;;;;;;5011935;28;19928;-79
2020/12/02 01:00:40;;;;;;;;;;;1.80;99.90;;;;;;5012234;28;19913;-79
2020/12/02 01:03:24;;;;;;;;;;;1.80;99.90;;;;;;5012376;28;20074;-80
2020/12/02 01:05:50;;;;;;;;;;;1.80;99.90;;;;;;5012627;28;20422;-79
2020/12/02 01:08:18;;;;;;;;;;;1.70;99.90;;;;;;5011922;28;20027;-79
2020/12/02 01:10:46;;;;;;;;;;;1.70;99.90;;;;;;5012236;28;19913;-82
2020/12/02 01:13:11;;;;;;;;;;;1.70;99.90;;;;;;5012126;28;20396;-80
2020/12/02 01:15:39;;;;;;;;;;;1.80;99.90;;;;;;5011763;28;19913;-79
2020/12/02 01:18:14;;;;;;;;;;;1.80;99.90;;;;;;5011372;28;19913;-79
2020/12/02 01:20:42;;;;;;;;;;;1.80;99.90;;;;;;5014249;28;19924;-79
2020/12/02 01:23:11;;;;;;;;;;;1.70;99.90;;;;;;5015424;28;19919;-80
2020/12/02 01:25:37;;;;;;;;;;;1.80;99.90;;;;;;5014925;28;19963;-79
2020/12/02 01:28:06;;;;;;;;;;;1.80;99.90;;;;;;5015086;28;19914;-80
2020/12/02 01:30:33;;;;;;;;;;;1.80;99.90;;;;;;5015306;28;19914;-79
2020/12/02 01:32:59;;;;;;;;;;;1.70;99.90;;;;;;5014980;28;19921;-79
2020/12/02 01:35:26;;;;;;;;;;;1.70;99.90;;;;;;5026522;28;20020;-80
2020/12/02 01:37:56;;;;;;;;;;;1.70;99.90;;;;;;5032011;28;19914;-79
2020/12/02 01:40:26;;;;;;;;;;;1.70;99.90;;;;;;5031043;28;20430;-79
2020/12/02 01:42:51;;;;;;;;;;;1.70;99.90;;;;;;5031816;28;19920;-79
2020/12/02 01:45:37;;;;;;;;;;;1.70;99.90;;;;;;5031371;28;19909;-81
2020/12/02 01:48:21;;;;;;;;;;;1.70;99.90;;;;;;5031256;28;20007;-82
2020/12/02 01:50:50;;;;;;;;;;;1.70;99.90;;;;;;5047674;28;19919;-78
2020/12/02 01:53:20;;;;;;;;;;;1.70;99.90;;;;;;5031253;28;19985;-81
2020/12/02 01:55:55;;;;;;;;;;;1.70;99.90;;;;;;5031229;28;19913;-80
2020/12/02 01:58:26;;;;;;;;;;;1.70;99.90;;;;;;5031479;28;20000;-81
2020/12/02 02:00:58;;;;;;;;;;;1.70;99.90;;;;;;5031210;28;19920;-80
2020/12/02 02:03:23;;;;;;;;;;;1.80;99.90;;;;;;5031309;28;19920;-80
2020/12/02 02:05:57;;;;;;;;;;;1.70;99.90;;;;;;5031171;28;19917;-81
2020/12/02 02:08:24;;;;;;;;;;;1.70;99.90;;;;;;5031490;28;20036;-80
2020/12/02 02:10:50;;;;;;;;;;;1.70;99.90;;;;;;5030769;28;19917;-81
2020/12/02 02:13:28;;;;;;;;;;;1.70;99.90;;;;;;5030853;28;20312;-80
2020/12/02 02:16:06;;;;;;;;;;;1.70;99.90;;;;;;5031209;28;19917;-82
2020/12/02 02:18:32;;;;;;;;;;;1.80;99.90;;;;;;5030860;28;19913;-80
2020/12/02 02:21:04;;;;;;;;;;;1.70;99.90;;;;;;5031227;28;19913;-78
2020/12/02 02:23:29;;;;;;;;;;;1.70;99.90;;;;;;5031067;28;19917;-82
2020/12/02 02:25:55;;;;;;;;;;;1.70;99.90;;;;;;5031046;28;19921;-81
2020/12/02 02:28:23;;;;;;;;;;;1.70;99.90;;;;;;5030515;28;20332;-82
2020/12/02 02:30:49;;;;;;;;;;;1.70;99.90;;;;;;5030085;28;19963;-81
2020/12/02 02:33:15;;;;;;;;;;;1.70;99.90;;;;;;5031546;28;19963;-79
2020/12/02 02:35:41;;;;;;;;;;;1.70;99.90;;;;;;5034567;28;19956;-80
2020/12/02 02:38:07;;;;;;;;;;;1.70;99.90;;;;;;5033835;28;20376;-78
2020/12/02 02:40:33;;;;;;;;;;;1.70;99.90;;;;;;5033969;28;19962;-80
2020/12/02 02:43:04;;;;;;;;;;;1.70;99.90;;;;;;5033789;28;19917;-79
2020/12/02 02:45:30;;;;;;;;;;;1.70;99.90;;;;;;5033835;28;19948;-80
2020/12/02 02:47:57;;;;;;;;;;;1.70;99.90;;;;;;5033896;28;20339;-79
2020/12/02 02:50:23;;;;;;;;;;;1.70;99.90;;;;;;5051308;28;20023;-79
2020/12/02 02:52:49;;;;;;;;;;;1.70;99.90;;;;;;5033396;28;20560;-79
2020/12/02 02:55:17;;;;;;;;;;;1.70;99.90;;;;;;5033275;28;19962;-81
2020/12/02 02:57:42;;;;;;;;;;;1.70;99.90;;;;;;5033619;28;20095;-79
2020/12/02 03:00:10;;;;;;;;;;;1.70;99.90;;;;;;5033848;28;19908;-79
2020/12/02 03:02:35;;;;;;;;;;;1.70;99.90;;;;;;5033870;28;19925;-78
2020/12/02 03:05:01;;;;;;;;;;;1.70;99.90;;;;;;5033917;28;19920;-80
2020/12/02 03:07:26;;;;;;;;;;;1.70;99.90;;;;;;5033470;28;20426;-80
2020/12/02 03:09:52;;;;;;;;;;;1.70;99.90;;;;;;5033137;28;19917;-80
2020/12/02 03:12:18;;;;;;;;;;;1.70;99.90;;;;;;5033106;28;19923;-81
2020/12/02 03:14:44;;;;;;;;;;;1.70;99.90;;;;;;5033613;28;19913;-81
2020/12/02 03:17:14;;;;;;;;;;;1.70;99.90;;;;;;5033543;28;20422;-82
2020/12/02 03:19:45;;;;;;;;;;;1.70;99.90;;;;;;5033010;28;19925;-82
2020/12/02 03:22:11;;;;;;;;;;;1.80;99.90;;;;;;5033035;28;20063;-82
2020/12/02 03:24:41;;;;;;;;;;;1.70;99.90;;;;;;5051136;28;20364;-81
2020/12/02 03:27:07;;;;;;;;;;;1.70;99.90;;;;;;5033485;28;19920;-81
2020/12/02 03:29:33;;;;;;;;;;;1.70;99.90;;;;;;5040215;28;20395;-81
2020/12/02 03:31:58;;;;;;;;;;;1.70;99.90;;;;;;5013869;28;20269;-77
2020/12/02 03:34:24;;;;;;;;;;;1.70;99.90;;;;;;5013079;28;20364;-82
2020/12/02 03:36:50;;;;;;;;;;;1.70;99.90;;;;;;5013547;28;19935;-81
2020/12/02 03:39:16;;;;;;;;;;;1.70;99.90;;;;;;5013253;28;20011;-80
2020/12/02 03:41:42;;;;;;;;;;;1.70;99.90;;;;;;5013281;28;19940;-81
2020/12/02 03:44:08;;;;;;;;;;;1.80;99.90;;;;;;5011903;28;19960;-82
2020/12/02 03:46:34;;;;;;;;;;;1.70;99.90;;;;;;5012855;28;19917;-80
2020/12/02 03:48:59;;;;;;;;;;;1.70;99.90;;;;;;5012777;28;19925;-81
2020/12/02 03:51:25;;;;;;;;;;;1.70;99.90;;;;;;5012651;28;19928;-80
2020/12/02 03:53:53;;;;;;;;;;;1.70;99.90;;;;;;5012643;28;19909;-81
2020/12/02 03:56:19;;;;;;;;;;;1.80;99.90;;;;;;5012815;28;19967;-81
2020/12/02 03:58:45;;;;;;;;;;;1.70;99.90;;;;;;5012700;28;20315;-81
2020/12/02 04:01:11;;;;;;;;;;;1.70;99.90;;;;;;5012779;28;20027;-81
2020/12/02 04:03:38;;;;;;;;;;;1.70;99.90;;;;;;4996138;28;22430;-81
2020/12/02 04:06:07;;;;;;;;;;;1.70;99.90;;;;;;5012515;28;19913;-80
2020/12/02 04:08:32;;;;;;;;;;;1.70;99.90;;;;;;5012694;28;20233;-79
2020/12/02 04:10:58;;;;;;;;;;;1.70;99.90;;;;;;5012951;28;19921;-78
2020/12/02 04:13:26;;;;;;;;;;;1.70;99.90;;;;;;5013008;28;20028;-78
2020/12/02 04:15:52;;;;;;;;;;;1.70;99.90;;;;;;5012145;28;20004;-79
2020/12/02 04:18:17;;;;;;;;;;;1.80;99.90;;;;;;5012473;28;20440;-81
2020/12/02 04:20:43;;;;;;;;;;;1.80;99.90;;;;;;5012096;28;19927;-80
2020/12/02 04:23:08;;;;;;;;;;;1.80;99.90;;;;;;5012563;28;20415;-80
2020/12/02 04:25:34;;;;;;;;;;;1.80;99.90;;;;;;5012208;28;19913;-79
2020/12/02 04:27:59;;;;;;;;;;;1.80;99.90;;;;;;5012818;28;19940;-80
2020/12/02 04:30:25;;;;;;;;;;;1.70;99.90;;;;;;5012125;28;19921;-81
2020/12/02 04:32:53;;;;;;;;;;;1.80;99.90;;;;;;5012271;28;20567;-80
2020/12/02 04:35:19;;;;;;;;;;;1.80;99.90;;;;;;5011876;28;19925;-80
2020/12/02 04:37:45;;;;;;;;;;;1.80;99.90;;;;;;5012652;28;19971;-80
2020/12/02 04:40:19;;;;;;;;;;;1.80;99.90;;;;;;5012334;28;19920;-80
2020/12/02 04:42:47;;;;;;;;;;;1.80;99.90;;;;;;5012454;28;19913;-80
2020/12/02 04:45:14;;;;;;;;;;;1.80;99.90;;;;;;5012330;28;19913;-81
2020/12/02 04:47:42;;;;;;;;;;;1.80;99.90;;;;;;5012196;28;20000;-81
2020/12/02 04:50:14;;;;;;;;;;;1.80;99.90;;;;;;5012083;28;19913;-80
2020/12/02 04:52:40;;;;;;;;;;;1.80;99.90;;;;;;5011894;28;19925;-79
2020/12/02 04:55:08;;;;;;;;;;;1.80;99.90;;;;;;5014187;28;19960;-80
2020/12/02 04:57:35;;;;;;;;;;;1.80;99.90;;;;;;5013861;28;19913;-80
2020/12/02 05:00:23;;;;;;;;;;;1.80;99.90;;;;;;5023422;28;19944;-81
2020/12/02 05:02:48;;;;;;;;;;;1.80;99.90;;;;;;5007238;28;19913;-82
2020/12/02 05:05:18;;;;;;;;;;;1.70;99.90;;;;;;5006675;28;19929;-80
2020/12/02 05:07:43;;;;;;;;;;;1.80;99.90;;;;;;5021626;28;19914;-81
2020/12/02 05:10:13;;;;;;;;;;;1.80;99.90;;;;;;5006376;28;20004;-82
2020/12/02 05:12:41;;;;;;;;;;;1.80;99.90;;;;;;5004140;28;20417;-80
2020/12/02 05:15:27;;;;;;;;;;;1.80;99.90;;;;;;5007145;28;19966;-80
2020/12/02 05:18:07;;;;;;;;;;;1.80;99.90;;;;;;5011702;28;20300;-79
2020/12/02 05:20:34;;;;;;;;;;;1.80;99.90;;;;;;5021396;28;19914;-80
2020/12/02 05:23:08;;;;;;;;;;;1.80;99.90;;;;;;5004774;28;19964;-82
2020/12/02 05:25:34;;;;;;;;;;;1.80;99.90;;;;;;5005863;28;19913;-79
2020/12/02 05:28:19;;;;;;;;;;;1.80;99.90;;;;;;5005845;28;19924;-78
2020/12/02 05:30:45;;;;;;;;;;;1.80;99.90;;;;;;5006251;28;20053;-79
2020/12/02 05:33:11;;;;;;;;;;;1.80;99.90;;;;;;5006386;28;20381;-80
2020/12/02 05:35:37;;;;;;;;;;;1.80;99.90;;;;;;5015207;28;19971;-80
2020/12/02 05:38:05;;;;;;;;;;;1.80;99.90;;;;;;5007606;28;19919;-80
2020/12/02 05:40:34;;;;;;;;;;;1.80;99.90;;;;;;4995561;28;19918;-80
2020/12/02 05:43:02;;;;;;;;;;;1.80;99.90;;;;;;4995208;28;19925;-80
2020/12/02 05:45:40;;;;;;;;;;;1.80;99.90;;;;;;4995492;28;19913;-81
2020/12/02 05:48:13;;;;;;;;;;;1.80;99.90;;;;;;4995511;28;19913;-82
2020/12/02 05:50:38;;;;;;;;;;;1.80;99.90;;;;;;4995368;28;19917;-80
2020/12/02 05:53:30;;;;;;;;;;;1.80;99.90;;;;;;4996558;28;20336;-80
2020/12/02 05:55:56;;;;;;;;;;;1.70;99.90;;;;;;5008714;28;19944;-79
2020/12/02 05:58:29;;;;;;;;;;;1.70;99.90;;;;;;4995318;28;20396;-81
2020/12/02 06:00:55;;;;;;;;;;;1.70;99.90;;;;;;4995346;28;19913;-82
2020/12/02 06:03:22;;;;;;;;;;;1.70;99.90;;;;;;4994956;28;20400;-80
2020/12/02 06:05:48;;;;;;;;;;;1.80;99.90;;;;;;4994346;28;19913;-80
2020/12/02 06:08:34;;;;;;;;;;;1.70;99.90;;;;;;4994992;28;20382;-80
2020/12/02 06:11:15;;;;;;;;;;;1.80;99.90;;;;;;4994389;28;19943;-80
2020/12/02 06:13:51;;;;;;;;;;;1.70;99.90;;;;;;5012854;28;19945;-81
2020/12/02 06:16:29;;;;;;;;;;;1.70;99.90;;;;;;4994777;28;20004;-80
2020/12/02 06:19:01;;;;;;;;;;;1.80;99.90;;;;;;4995252;28;20032;-79
2020/12/02 06:21:33;;;;;;;;;;;1.70;99.90;;;;;;4994997;28;20405;-81
2020/12/02 06:23:58;;;;;;;;;;;1.70;99.90;;;;;;5010734;28;19914;-83
2020/12/02 06:26:35;;;;;;;;;;;1.80;99.90;;;;;;4994586;28;20408;-82
2020/12/02 06:29:03;;;;;;;;;;;1.70;99.90;;;;;;5000620;28;20441;-78
2020/12/02 06:31:28;;;;;;;;;;;1.70;99.90;;;;;;5023169;28;19925;-79
2020/12/02 06:33:55;;;;;;;;;;;1.70;99.90;;;;;;5008440;28;19949;-82
2020/12/02 06:36:27;;;;;;;;;;;1.70;99.90;;;;;;5001747;28;20031;-79
2020/12/02 06:39:22;;;;;;;;;;;1.70;99.90;;;;;;5003770;28;19920;-79
2020/12/02 06:41:47;;;;;;;;;;;1.70;99.90;;;;;;5010494;28;19958;-81
2020/12/02 06:44:13;;;;;;;;;;;1.70;99.90;;;;;;5012618;28;20012;-80
2020/12/02 06:46:44;;;;;;;;;;;1.70;99.90;;;;;;5011730;28;20487;-80
2020/12/02 06:49:10;;;;;;;;;;;1.70;99.90;;;;;;5010741;28;19918;-80
2020/12/02 06:51:36;;;;;;;;;;;1.70;99.90;;;;;;5012155;28;19921;-79
2020/12/02 06:54:04;;;;;;;;;;;1.80;99.90;;;;;;5012326;28;20395;-79
2020/12/02 06:56:29;;;;;;;;;;;1.70;99.90;;;;;;5012808;28;19924;-79
2020/12/02 06:59:02;;;;;;;;;;;1.80;99.90;;;;;;5011644;28;20292;-80
2020/12/02 07:01:28;;;;;;;;;;;1.80;99.90;;;;;;5020054;28;19921;-80
2020/12/02 07:03:57;;;;;;;;;;;1.70;99.90;;;;;;5012594;28;19913;-79
2020/12/02 07:06:27;;;;;;;;;;;1.80;99.90;;;;;;5011116;28;19913;-80
2020/12/02 07:09:10;;;;;;;;;;;1.80;99.90;;;;;;5004647;28;19914;-79
2020/12/02 07:11:40;;;;;;;;;;;1.80;99.90;;;;;;5001030;28;19922;-79
2020/12/02 07:14:29;;;;;;;;;;;1.80;99.90;;;;;;4997660;28;20289;-80
2020/12/02 07:16:58;;;;;;;;;;;1.80;99.90;;;;;;5011168;28;19913;-80
2020/12/02 07:19:25;;;;;;;;;;;1.80;99.90;;;;;;5030883;28;19920;-82
2020/12/02 07:21:56;;;;;;;;;;;1.80;99.90;;;;;;5012650;28;19960;-80
2020/12/02 07:24:25;;;;;;;;;;;1.80;99.90;;;;;;5012430;28;19999;-80
2020/12/02 07:26:51;;;;;;;;;;;1.80;99.90;;;;;;5013375;28;19909;-81
2020/12/02 07:29:19;;;;;;;;;;;1.80;99.90;;;;;;5011385;28;19913;-79
2020/12/02 07:31:46;;;;;;;;;;;1.80;99.90;;;;;;5013211;28;20448;-80
2020/12/02 07:34:12;;;;;;;;;;;1.80;99.90;;;;;;5018213;28;19979;-79
2020/12/02 07:36:38;;;;;;;;;;;1.80;99.90;;;;;;5021832;28;20368;-81
2020/12/02 07:39:09;;;;;;;;;;;1.80;99.90;;;;;;5019661;28;19921;-79
2020/12/02 07:41:36;;;;;;;;;;;1.80;99.90;;;;;;5017631;28;19917;-80
2020/12/02 07:44:02;;;;;;;;;;;1.80;99.90;;;;;;5020044;28;20081;-79
2020/12/02 07:46:30;;;;;;;;;;;1.80;99.90;;;;;;5020614;28;19968;-80
2020/12/02 07:48:57;;;;;;;;;;;1.80;99.90;;;;;;5017675;28;19925;-79
2020/12/02 07:51:25;;;;;;;;;;;1.90;99.90;;;;;;5018998;28;20014;-80
2020/12/02 07:54:06;;;;;;;;;;;1.90;99.90;;;;;;5017192;28;19933;-80
2020/12/02 07:56:33;;;;;;;;;;;1.90;99.90;;;;;;5019961;28;19963;-79
2020/12/02 07:59:06;;;;;;;;;;;1.90;99.90;;;;;;5019092;28;19986;-80
2020/12/02 08:01:43;;;;;;;;;;;1.90;99.90;;;;;;5014116;28;19920;-79
2020/12/02 08:04:17;;;;;;;;;;;1.90;99.90;;;;;;5018881;28;19972;-80
2020/12/02 08:06:48;;;;;;;;;;;1.90;99.90;;;;;;5034770;28;20293;-79
2020/12/02 08:09:13;;;;;;;;;;;1.90;99.90;;;;;;5016708;28;20008;-79
2020/12/02 08:11:52;;;;;;;;;;;1.90;99.90;;;;;;5019602;28;20019;-81
2020/12/02 08:14:25;;;;;;;;;;;2.00;99.90;;;;;;5028413;28;19952;-79
2020/12/02 08:16:53;;;;;;;;;;;2.00;99.90;;;;;;5028469;28;20367;-79
2020/12/02 08:19:28;;;;;;;;;;;2.00;99.90;;;;;;5028742;28;20357;-80
2020/12/02 08:21:56;;;;;;;;;;;2.00;99.90;;;;;;5022584;28;19919;-80
2020/12/02 08:24:30;;;;;;;;;;;2.00;99.90;;;;;;5018463;28;19917;-82
2020/12/02 08:26:55;;;;;;;;;;;2.00;99.90;;;;;;5019114;28;19920;-81
2020/12/02 08:29:23;;;;;;;;;;;2.10;99.90;;;;;;5018452;28;19917;-80
2020/12/02 08:32:09;;;;;;;;;;;2.10;99.90;;;;;;5018704;28;20268;-80
2020/12/02 08:34:37;;;;;;;;;;;2.10;99.90;;;;;;5033143;28;19925;-81
2020/12/02 08:37:20;;;;;;;;;;;2.10;99.90;;;;;;5035848;28;19920;-80
2020/12/02 08:39:51;;;;;;;;;;;2.10;99.90;;;;;;5035975;28;20360;-82
2020/12/02 08:42:31;;;;;;;;;;;2.20;99.90;;;;;;5035838;28;20019;-82
2020/12/02 08:45:02;;;;;;;;;;;2.10;99.90;;;;;;5036107;28;20234;-81
2020/12/02 08:47:28;;;;;;;;;;;2.20;99.90;;;;;;5035439;28;19909;-80
2020/12/02 08:49:53;;;;;;;;;;;2.20;99.90;;;;;;5035828;28;19912;-80
2020/12/02 08:52:21;;;;;;;;;;;2.20;99.90;;;;;;5034926;28;19932;-81
2020/12/02 08:54:49;;;;;;;;;;;2.20;99.90;;;;;;5035101;28;19919;-81
2020/12/02 08:57:15;;;;;;;;;;;2.20;99.90;;;;;;5035401;28;19999;-81
2020/12/02 08:59:41;;;;;;;;;;;2.20;99.90;;;;;;5035531;28;20336;-81
2020/12/02 09:02:11;;;;;;;;;;;2.20;99.90;;;;;;5035279;28;19919;-80
2020/12/02 09:04:36;;;;;;;;;;;2.20;99.90;;;;;;5035302;28;19913;-80
2020/12/02 09:07:02;;;;;;;;;;;2.30;99.90;;;;;;5035436;28;20276;-81
2020/12/02 09:09:28;;;;;;;;;;;2.20;99.90;;;;;;5035531;28;19913;-81
2020/12/02 09:11:54;;;;;;;;;;;2.30;99.90;;;;;;5035073;28;19979;-81
2020/12/02 09:14:22;;;;;;;;;;;2.30;99.90;;;;;;5031194;28;20351;-82
2020/12/02 09:16:48;;;;;;;;;;;2.20;99.90;;;;;;5041366;28;19924;-81
2020/12/02 09:19:16;;;;;;;;;;;2.30;99.90;;;;;;5050359;28;19913;-82
2020/12/02 09:21:42;;;;;;;;;;;2.30;99.90;;;;;;5034126;28;20389;-81
2020/12/02 09:24:07;;;;;;;;;;;2.30;99.90;;;;;;5037758;28;19917;-82
2020/12/02 09:26:33;;;;;;;;;;;2.30;99.90;;;;;;5015411;28;19913;-79
2020/12/02 09:29:02;;;;;;;;;;;2.30;99.90;;;;;;5032098;28;19917;-80
2020/12/02 09:31:29;;;;;;;;;;;2.20;99.90;;;;;;5034306;28;19925;-81
2020/12/02 09:33:54;;;;;;;;;;;2.30;99.90;;;;;;5027497;28;19927;-79
2020/12/02 09:36:24;;;;;;;;;;;2.30;99.90;;;;;;5014825;28;20428;-80
2020/12/02 09:38:51;;;;;;;;;;;2.30;99.90;;;;;;5014762;28;20357;-79
2020/12/02 09:41:31;;;;;;;;;;;2.30;99.90;;;;;;5013143;28;19936;-80
2020/12/02 09:44:00;;;;;;;;;;;2.30;99.90;;;;;;5015314;28;19990;-80
2020/12/02 09:46:29;;;;;;;;;;;2.30;99.90;;;;;;5014829;28;19913;-80
2020/12/02 09:48:59;;;;;;;;;;;2.30;99.90;;;;;;5014586;28;19913;-82
2020/12/02 09:51:28;;;;;;;;;;;2.30;99.90;;;;;;5014490;28;19928;-82
2020/12/02 09:53:56;;;;;;;;;;;2.30;99.90;;;;;;5030608;28;19917;-81
2020/12/02 09:56:24;;;;;;;;;;;2.40;99.90;;;;;;5014556;28;19920;-81
2020/12/02 09:58:52;;;;;;;;;;;2.40;99.90;;;;;;5005125;28;19917;-81
2020/12/02 10:01:25;;;;;;;;;;;2.30;99.90;;;;;;5002480;28;19913;-80
2020/12/02 10:16:15;;;;;;;;;;;2.40;99.90;;;;;;5046359;22;19931;-81
2020/12/02 10:18:44;;;;;;;;;;;2.40;99.90;;;;;;5070523;28;19978;-83
2020/12/02 10:21:29;;;;;;;;;;;2.40;99.90;;;;;;5070897;28;20013;-82
2020/12/02 10:23:58;;;;;;;;;;;2.40;99.90;;;;;;5053106;28;19995;-81
2020/12/02 10:26:56;;;;;;;;;;;2.40;99.90;;;;;;5070075;28;20013;-82
2020/12/02 10:29:30;;;;;;;;;;;2.40;99.90;;;;;;5031100;28;20348;-81
2020/12/02 10:32:05;;;;;;;;;;;2.40;99.90;;;;;;5053141;28;19970;-81
2020/12/02 10:34:37;;;;;;;;;;;2.40;99.90;;;;;;5070195;28;20386;-81
2020/12/02 10:37:05;;;;;;;;;;;2.40;99.90;;;;;;5053889;28;19913;-81
2020/12/02 10:39:34;;;;;;;;;;;2.40;99.90;;;;;;5053445;28;19920;-82
2020/12/02 10:42:19;;;;;;;;;;;2.40;99.90;;;;;;5053660;28;19913;-79
2020/12/02 10:45:05;;;;;;;;;;;2.40;99.90;;;;;;5070291;28;19918;-82
2020/12/02 10:47:31;;;;;;;;;;;2.40;99.90;;;;;;5052749;28;19916;-79
2020/12/02 10:49:58;;;;;;;;;;;2.40;99.90;;;;;;5070094;28;19919;-81
2020/12/02 10:52:24;;;;;;;;;;;2.40;99.90;;;;;;5052292;28;20003;-82
2020/12/02 10:54:53;;;;;;;;;;;2.40;99.90;;;;;;5053074;28;19962;-80
2020/12/02 10:57:20;;;;;;;;;;;2.40;99.90;;;;;;5053219;28;20008;-81
2020/12/02 10:59:49;;;;;;;;;;;2.40;99.90;;;;;;5070462;28;19916;-79
2020/12/02 11:02:16;;;;;;;;;;;2.40;99.90;;;;;;5053310;28;19916;-79
2020/12/02 11:04:43;;;;;;;;;;;2.40;99.90;;;;;;5053182;28;20205;-79
2020/12/02 11:07:15;;;;;;;;;;;2.40;99.90;;;;;;5052974;28;19922;-79
2020/12/02 11:09:44;;;;;;;;;;;2.50;99.90;;;;;;5069685;28;20119;-78
2020/12/02 11:12:20;;;;;;;;;;;2.50;99.90;;;;;;5069128;28;19924;-78
2020/12/02 11:14:53;;;;;;;;;;;2.50;99.90;;;;;;5070846;28;20367;-81
2020/12/02 11:17:19;;;;;;;;;;;2.50;99.90;;;;;;5068862;28;20358;-82
2020/12/02 11:20:08;;;;;;;;;;;2.50;99.90;;;;;;5069230;28;19912;-81
2020/12/02 11:22:57;;;;;;;;;;;2.50;99.90;;;;;;5048428;28;19912;-82
2020/12/02 11:25:40;;;;;;;;;;;2.50;99.90;;;;;;5052390;28;19919;-82
2020/12/02 13:24:30;;;;;;;;;;;2.30;99.90;;;;;;5071874;22;19936;-81
2020/12/02 13:27:09;;;;;;;;;;;2.30;99.90;;;;;;5035257;28;20364;-80
2020/12/02 13:29:37;;;;;;;;;;;2.30;99.90;;;;;;5042451;28;20357;-81
2020/12/02 13:32:08;;;;;;;;;;;2.20;99.90;;;;;;5034618;28;19924;-81
2020/12/02 13:34:36;;;;;;;;;;;2.20;99.90;;;;;;5034910;28;20373;-80
2020/12/02 13:37:03;;;;;;;;;;;2.20;99.90;;;;;;5034488;28;19999;-81
2020/12/02 13:39:36;;;;;;;;;;;2.10;99.90;;;;;;5035252;28;20550;-80
2020/12/02 13:42:03;;;;;;;;;;;2.20;99.90;;;;;;5052730;28;19913;-80
2020/12/02 13:44:46;;;;;;;;;;;2.20;99.90;;;;;;5034999;28;20384;-78
2020/12/02 13:47:12;;;;;;;;;;;2.20;99.90;;;;;;5035002;28;20348;-80
2020/12/02 13:49:38;;;;;;;;;;;2.20;99.90;;;;;;5035020;28;20365;-81
2020/12/02 13:52:07;;;;;;;;;;;2.20;99.90;;;;;;5034395;28;19916;-80
2020/12/02 13:54:39;;;;;;;;;;;2.20;99.90;;;;;;5034402;28;19948;-81
2020/12/02 13:57:12;;;;;;;;;;;2.20;99.90;;;;;;5034404;28;19986;-79
2020/12/02 13:59:45;;;;;;;;;;;2.10;99.90;;;;;;5034614;28;19920;-79
2020/12/02 14:02:15;;;;;;;;;;;2.10;99.90;;;;;;5034581;28;20342;-79
2020/12/02 14:04:53;;;;;;;;;;;2.20;99.90;;;;;;5034486;28;19913;-85
2020/12/02 14:07:20;;;;;;;;;;;2.20;99.90;;;;;;5034421;28;19939;-82
2020/12/02 14:10:09;;;;;;;;;;;2.20;99.90;;;;;;5034885;28;20216;-81
2020/12/02 14:12:35;;;;;;;;;;;2.20;99.90;;;;;;5034457;28;20058;-84
2020/12/02 14:15:00;;;;;;;;;;;2.10;99.90;;;;;;5034569;28;19967;-81
2020/12/02 14:17:26;;;;;;;;;;;2.00;99.90;;;;;;5034597;28;20120;-82
2020/12/02 14:19:52;;;;;;;;;;;2.00;99.90;;;;;;5031183;28;19940;-82
2020/12/02 14:22:22;;;;;;;;;;;2.00;99.90;;;;;;5034282;28;20322;-80
2020/12/02 14:24:52;;;;;;;;;;;2.00;99.90;;;;;;5033844;28;19928;-80
2020/12/02 14:27:19;;;;;;;;;;;2.00;99.90;;;;;;5033798;28;19999;-83
2020/12/02 14:29:46;;;;;;;;;;;2.00;99.90;;;;;;5033514;28;19919;-79
2020/12/02 14:32:17;;;;;;;;;;;2.00;99.90;;;;;;5034205;28;19946;-80
2020/12/02 14:34:43;;;;;;;;;;;2.00;99.90;;;;;;5023934;28;19927;-80
2020/12/02 14:37:08;;;;;;;;;;;2.00;99.90;;;;;;5022619;28;19913;-79
2020/12/02 14:39:34;;;;;;;;;;;2.00;99.90;;;;;;5024446;28;19919;-80
2020/12/02 14:42:02;;;;;;;;;;;1.90;99.90;;;;;;5023745;28;20024;-80
2020/12/02 14:44:28;;;;;;;;;;;1.90;99.90;;;;;;5020509;28;19913;-79
2020/12/02 14:46:54;;;;;;;;;;;1.90;99.90;;;;;;5032830;28;20379;-81
2020/12/02 14:49:19;;;;;;;;;;;1.90;99.90;;;;;;5034146;28;19935;-80
2020/12/02 14:51:45;;;;;;;;;;;1.90;99.90;;;;;;5033424;28;19924;-81
2020/12/02 14:54:11;;;;;;;;;;;1.80;99.90;;;;;;5033580;28;19916;-80
2020/12/02 14:56:52;;;;;;;;;;;1.80;99.90;;;;;;5033345;28;20011;-81
2020/12/02 14:59:41;;;;;;;;;;;1.80;99.90;;;;;;5033041;28;20004;-81
2020/12/02 15:02:08;;;;;;;;;;;1.80;99.90;;;;;;5032882;28;20010;-79
2020/12/02 15:04:36;;;;;;;;;;;1.70;99.90;;;;;;5032546;28;19920;-79
2020/12/02 15:07:02;;;;;;;;;;;1.70;99.90;;;;;;5033034;28;19912;-79
2020/12/02 15:09:33;;;;;;;;;;;1.70;99.90;;;;;;5033336;28;19920;-79
2020/12/02 15:12:01;;;;;;;;;;;1.80;99.90;;;;;;5032937;28;20299;-79
2020/12/02 15:14:28;;;;;;;;;;;1.70;99.90;;;;;;5051397;28;19967;-81
2020/12/02 15:17:00;;;;;;;;;;;1.70;99.90;;;;;;5033300;28;19912;-82
2020/12/02 15:19:26;;;;;;;;;;;1.70;99.90;;;;;;5033546;28;19912;-79
2020/12/02 15:21:53;;;;;;;;;;;1.70;99.90;;;;;;5051219;28;20361;-79
2020/12/02 15:24:19;;;;;;;;;;;1.70;99.90;;;;;;5032500;28;19925;-79
2020/12/02 15:26:47;;;;;;;;;;;1.70;99.90;;;;;;5033104;28;19995;-79
2020/12/02 15:29:12;;;;;;;;;;;1.60;99.90;;;;;;5032918;28;20201;-80
2020/12/02 15:31:41;;;;;;;;;;;1.60;99.90;;;;;;5032060;28;20390;-79
2020/12/02 15:34:07;;;;;;;;;;;1.60;99.90;;;;;;5032749;28;20418;-80
2020/12/02 15:36:36;;;;;;;;;;;1.60;99.90;;;;;;5033507;28;20042;-79
2020/12/02 15:39:07;;;;;;;;;;;1.60;99.90;;;;;;5032574;28;20367;-79
2020/12/02 15:41:44;;;;;;;;;;;1.60;99.90;;;;;;5033281;28;19919;-79
2020/12/02 15:44:10;;;;;;;;;;;1.50;99.90;;;;;;5050290;28;19919;-80
2020/12/02 15:46:48;;;;;;;;;;;1.50;99.90;;;;;;5017553;28;19913;-79
2020/12/02 15:49:21;;;;;;;;;;;1.40;99.90;;;;;;5012724;28;19948;-78
2020/12/02 15:51:52;;;;;;;;;;;1.40;99.90;;;;;;5011935;28;19925;-79
2020/12/02 15:54:23;;;;;;;;;;;1.40;99.90;;;;;;5013255;28;19917;-79
2020/12/02 15:57:02;;;;;;;;;;;1.40;99.90;;;;;;5032739;28;19982;-79
2020/12/02 15:59:28;;;;;;;;;;;1.40;99.90;;;;;;5027872;28;19923;-79
2020/12/02 16:01:57;;;;;;;;;;;1.40;99.90;;;;;;5028903;28;19913;-79
2020/12/02 16:14:00;;;;;;;;;;;1.40;99.90;;;;;;5046079;22;19935;-80
2020/12/02 16:16:29;;;;;;;;;;;1.40;99.90;;;;;;5020268;28;20406;-79
2020/12/02 16:22:06;;;;;;;;;;;1.40;99.90;;;;;;5050469;28;20027;-79
2020/12/02 16:24:33;;;;;;;;;;;1.30;99.90;;;;;;5031723;28;19963;-80
2020/12/02 16:27:00;;;;;;;;;;;1.30;99.90;;;;;;5023482;28;19958;-80
2020/12/02 16:29:26;;;;;;;;;;;1.30;99.90;;;;;;5023229;28;19917;-80
2020/12/02 16:31:53;;;;;;;;;;;1.30;99.90;;;;;;5019270;28;19917;-81
2020/12/02 16:34:18;;;;;;;;;;;1.30;99.90;;;;;;5011637;28;19928;-81
2020/12/02 16:36:44;;;;;;;;;;;1.30;99.90;;;;;;5011863;28;19913;-78
2020/12/02 16:39:13;;;;;;;;;;;1.30;99.90;;;;;;5012206;28;19976;-78
2020/12/02 16:41:39;;;;;;;;;;;1.20;99.90;;;;;;5012236;28;20253;-79
2020/12/02 16:44:10;;;;;;;;;;;1.20;99.90;;;;;;5012020;28;20004;-80
2020/12/02 16:46:42;;;;;;;;;;;1.30;99.90;;;;;;5011466;28;20357;-82
2020/12/02 16:49:08;;;;;;;;;;;1.20;99.90;;;;;;5011798;28;19920;-80
2020/12/02 16:51:55;;;;;;;;;;;1.20;99.90;;;;;;5025022;28;19916;-80
2020/12/02 16:54:26;;;;;;;;;;;1.20;99.90;;;;;;5022041;28;19927;-81
2020/12/02 16:57:08;;;;;;;;;;;1.20;99.90;;;;;;5038070;28;20007;-81
2020/12/02 16:59:35;;;;;;;;;;;1.20;99.90;;;;;;5029833;28;20357;-80
2020/12/02 17:02:01;;;;;;;;;;;1.30;99.90;;;;;;5029246;28;19920;-81
2020/12/02 17:04:28;;;;;;;;;;;1.20;99.90;;;;;;5026577;28;19913;-81
2020/12/02 17:06:54;;;;;;;;;;;1.20;99.90;;;;;;5024877;28;20384;-81